createdAt,value
2017-10-28T00:01:21.849Z,12.10
2017-10-28T00:04:23.347Z,12.10
2017-10-28T00:07:24.845Z,12.10
2017-10-28T00:10:26.417Z,12.00
2017-10-28T00:13:27.890Z,11.80
2017-10-28T00:16:30.152Z,11.90
2017-10-28T00:19:32.435Z,11.90
2017-10-28T00:22:33.986Z,11.90
2017-10-28T00:25:36.216Z,11.90
2017-10-28T00:28:37.735Z,12.00
2017-10-28T00:31:45.509Z,11.90
2017-10-28T00:34:53.930Z,11.80
2017-10-28T00:37:56.236Z,11.70
2017-10-28T00:40:57.960Z,11.80
2017-10-28T00:43:59.608Z,11.50
2017-10-28T00:47:01.865Z,11.50
2017-10-28T00:50:03.407Z,11.20
2017-10-28T00:53:04.910Z,11.40
2017-10-28T00:56:06.386Z,11.40
2017-10-28T00:59:07.955Z,11.40
2017-10-28T01:02:09.530Z,11.50
2017-10-28T01:05:11.767Z,11.60
2017-10-28T01:08:13.773Z,11.70
2017-10-28T01:11:16.644Z,11.50
2017-10-28T01:14:19.435Z,11.50
2017-10-28T01:17:22.690Z,11.50
2017-10-28T01:20:25.129Z,11.50
2017-10-28T01:23:27.351Z,11.50
2017-10-28T01:26:29.448Z,11.60
2017-10-28T01:29:32.025Z,11.70
2017-10-28T01:32:34.966Z,11.60
2017-10-28T01:35:36.981Z,11.60
2017-10-28T01:38:39.950Z,11.60
2017-10-28T01:41:43.093Z,11.60
2017-10-28T01:44:45.089Z,11.60
2017-10-28T01:47:47.098Z,11.60
2017-10-28T01:50:49.906Z,11.70
2017-10-28T01:53:51.915Z,11.70
2017-10-28T01:56:54.008Z,11.50
2017-10-28T01:59:55.547Z,11.70
2017-10-28T02:02:57.080Z,11.60
2017-10-28T02:05:58.627Z,11.50
2017-10-28T02:09:00.235Z,11.60
2017-10-28T02:12:01.728Z,11.20
2017-10-28T02:15:03.303Z,11.30
2017-10-28T02:18:04.790Z,11.30
2017-10-28T02:21:06.375Z,11.30
2017-10-28T02:24:08.667Z,11.20
2017-10-28T02:27:10.245Z,11.10
2017-10-28T02:30:11.724Z,11.40
2017-10-28T02:33:13.238Z,11.30
2017-10-28T02:36:14.744Z,11.20
2017-10-28T02:39:16.258Z,11.30
2017-10-28T02:42:17.866Z,11.30
2017-10-28T02:45:20.079Z,11.20
2017-10-28T02:48:21.570Z,11.20
2017-10-28T02:51:23.160Z,11.20
2017-10-28T02:54:25.425Z,11.40
2017-10-28T02:57:26.969Z,11.00
2017-10-28T03:00:29.385Z,11.00
2017-10-28T03:03:30.941Z,11.00
2017-10-28T03:06:32.484Z,11.10
2017-10-28T03:09:33.969Z,11.20
2017-10-28T03:12:35.471Z,11.10
2017-10-28T03:15:37.738Z,11.10
2017-10-28T03:18:39.957Z,11.10
2017-10-28T03:21:41.500Z,11.20
2017-10-28T03:24:43.052Z,11.20
2017-10-28T03:27:44.576Z,11.20
2017-10-28T03:30:46.909Z,11.10
2017-10-28T03:33:48.451Z,10.90
2017-10-28T03:36:50.001Z,11.30
2017-10-28T03:39:52.288Z,11.30
2017-10-28T03:42:53.828Z,11.30
2017-10-28T03:45:56.119Z,11.40
2017-10-28T03:48:57.740Z,11.10
2017-10-28T03:51:59.197Z,11.00
2017-10-28T03:55:00.658Z,11.00
2017-10-28T03:58:02.156Z,11.10
2017-10-28T04:01:03.671Z,11.20
2017-10-28T04:04:05.200Z,11.00
2017-10-28T04:07:06.700Z,10.80
2017-10-28T04:10:09.180Z,10.90
2017-10-28T04:13:10.637Z,11.00
2017-10-28T04:16:12.146Z,11.00
2017-10-28T04:19:13.701Z,10.90
2017-10-28T04:22:15.204Z,11.00
2017-10-28T04:25:16.705Z,11.00
2017-10-28T04:28:18.219Z,11.00
2017-10-28T04:31:19.730Z,11.00
2017-10-28T04:34:21.251Z,11.00
2017-10-28T04:37:23.541Z,10.90
2017-10-28T04:40:25.068Z,11.00
2017-10-28T04:43:27.303Z,10.90
2017-10-28T04:46:29.224Z,10.90
2017-10-28T04:49:30.732Z,10.90
2017-10-28T04:52:32.338Z,10.80
2017-10-28T04:55:33.829Z,10.80
2017-10-28T04:58:35.370Z,10.80
2017-10-28T05:01:36.909Z,10.70
2017-10-28T05:04:39.260Z,10.70
2017-10-28T05:07:40.808Z,10.70
2017-10-28T05:10:43.120Z,10.60
2017-10-28T05:13:44.732Z,10.50
2017-10-28T05:16:46.253Z,10.50
2017-10-28T05:19:47.810Z,10.50
2017-10-28T05:22:49.291Z,10.50
2017-10-28T05:25:51.610Z,10.60
2017-10-28T05:28:53.139Z,10.60
2017-10-28T05:35:03.538Z,10.70
2017-10-28T05:38:05.817Z,10.60
2017-10-28T05:41:07.376Z,10.60
2017-10-28T05:44:08.884Z,10.60
2017-10-28T05:47:11.220Z,10.50
2017-10-28T05:50:12.806Z,10.40
2017-10-28T05:53:15.109Z,10.60
2017-10-28T05:56:16.628Z,10.50
2017-10-28T05:59:18.872Z,10.50
2017-10-28T06:02:20.435Z,10.30
2017-10-28T06:05:22.063Z,10.50
2017-10-28T06:08:23.628Z,10.20
2017-10-28T06:11:25.182Z,10.40
2017-10-28T06:14:26.706Z,10.40
2017-10-28T06:17:28.194Z,10.50
2017-10-28T06:20:29.749Z,10.40
2017-10-28T06:23:31.304Z,10.50
2017-10-28T06:26:32.771Z,10.40
2017-10-28T06:29:34.305Z,10.30
2017-10-28T06:32:35.813Z,10.30
2017-10-28T06:35:37.394Z,10.20
2017-10-28T06:38:38.866Z,10.40
2017-10-28T06:41:40.363Z,10.50
2017-10-28T06:44:42.714Z,10.40
2017-10-28T06:47:44.252Z,10.50
2017-10-28T06:50:46.006Z,10.50
2017-10-28T06:53:47.521Z,10.60
2017-10-28T06:56:49.094Z,10.60
2017-10-28T06:59:50.667Z,10.50
2017-10-28T07:02:52.228Z,10.50
2017-10-28T07:05:53.804Z,10.70
2017-10-28T07:08:56.184Z,10.50
2017-10-28T07:11:57.854Z,10.60
2017-10-28T07:14:59.397Z,10.60
2017-10-28T07:18:01.068Z,10.50
2017-10-28T07:21:03.403Z,10.70
2017-10-28T07:24:04.933Z,10.70
2017-10-28T07:27:06.571Z,10.60
2017-10-28T07:30:08.151Z,10.50
2017-10-28T07:33:10.644Z,10.50
2017-10-28T07:36:12.223Z,10.50
2017-10-28T07:39:14.499Z,10.50
2017-10-28T07:42:16.050Z,10.50
2017-10-28T07:45:17.505Z,10.60
2017-10-28T07:48:19.790Z,10.50
2017-10-28T07:51:22.024Z,10.50
2017-10-28T07:54:23.529Z,10.40
2017-10-28T07:57:25.123Z,10.40
2017-10-28T08:00:27.396Z,10.50
2017-10-28T08:03:28.929Z,10.40
2017-10-28T08:06:30.395Z,10.50
2017-10-28T08:09:32.040Z,10.50
2017-10-28T08:12:33.529Z,10.50
2017-10-28T08:15:35.102Z,10.60
2017-10-28T08:18:36.664Z,10.80
2017-10-28T08:21:38.961Z,10.60
2017-10-28T08:24:40.578Z,10.60
2017-10-28T08:27:42.932Z,10.60
2017-10-28T08:30:44.524Z,10.50
2017-10-28T08:33:46.856Z,10.60
2017-10-28T08:36:48.423Z,10.60
2017-10-28T08:39:49.953Z,10.60
2017-10-28T08:42:51.504Z,10.60
2017-10-28T08:45:53.133Z,10.60
2017-10-28T08:48:55.468Z,10.60
2017-10-28T08:51:57.081Z,10.50
2017-10-28T08:54:58.603Z,10.70
2017-10-28T08:58:00.911Z,10.80
2017-10-28T09:01:02.560Z,10.60
2017-10-28T09:04:04.894Z,10.70
2017-10-28T09:07:06.488Z,10.70
2017-10-28T09:10:08.039Z,10.80
2017-10-28T09:13:09.505Z,10.60
2017-10-28T09:16:11.209Z,10.70
2017-10-28T09:19:13.178Z,10.70
2017-10-28T09:22:15.185Z,10.80
2017-10-28T09:25:59.131Z,10.80
2017-10-28T09:29:07.044Z,10.80
2017-10-28T09:32:08.991Z,10.90
2017-10-28T09:35:10.963Z,10.80
2017-10-28T09:38:13.117Z,10.70
2017-10-28T09:41:14.746Z,10.70
2017-10-28T09:44:16.335Z,10.70
2017-10-28T09:47:18.588Z,10.70
2017-10-28T09:50:20.188Z,10.40
2017-10-28T09:53:21.753Z,10.60
2017-10-28T09:56:23.268Z,10.60
2017-10-28T09:59:25.563Z,10.50
2017-10-28T10:02:27.122Z,10.50
2017-10-28T10:05:28.765Z,10.60
2017-10-28T10:08:31.029Z,10.60
2017-10-28T10:11:33.381Z,10.80
2017-10-28T10:14:34.921Z,10.80
2017-10-28T10:17:36.481Z,10.70
2017-10-28T10:20:38.065Z,10.90
2017-10-28T10:23:40.338Z,10.70
2017-10-28T10:26:42.652Z,10.70
2017-10-28T10:29:44.236Z,10.70
2017-10-28T10:32:45.739Z,10.70
2017-10-28T10:35:47.356Z,10.60
2017-10-28T10:38:49.679Z,10.70
2017-10-28T10:41:51.321Z,10.70
2017-10-28T10:44:52.857Z,10.70
2017-10-28T10:47:55.161Z,10.70
2017-10-28T10:50:56.674Z,10.70
2017-10-28T10:53:58.299Z,10.70
2017-10-28T10:56:59.844Z,10.70
2017-10-28T11:00:01.409Z,10.80
2017-10-28T11:03:03.122Z,10.80
2017-10-28T11:06:05.397Z,10.90
2017-10-28T11:09:07.739Z,10.90
2017-10-28T11:12:09.338Z,11.00
2017-10-28T11:15:10.861Z,10.70
2017-10-28T11:18:13.106Z,10.90
2017-10-28T11:21:14.641Z,10.90
2017-10-28T11:24:17.064Z,10.90
2017-10-28T11:27:19.443Z,11.00
2017-10-28T11:30:21.209Z,10.90
2017-10-28T11:33:22.737Z,11.00
2017-10-28T11:36:25.038Z,10.90
2017-10-28T11:39:27.383Z,10.90
2017-10-28T11:42:29.713Z,10.90
2017-10-28T11:45:31.249Z,10.90
2017-10-28T11:48:32.763Z,10.90
2017-10-28T11:51:34.374Z,10.90
2017-10-28T11:54:35.934Z,10.80
2017-10-28T11:57:37.546Z,11.00
2017-10-28T12:00:39.836Z,11.00
2017-10-28T12:03:42.145Z,11.00
2017-10-28T12:06:43.710Z,11.00
2017-10-28T12:09:45.333Z,11.10
2017-10-28T12:12:46.849Z,11.00
2017-10-28T12:15:48.381Z,11.00
2017-10-28T12:18:49.986Z,11.10
2017-10-28T12:21:51.557Z,11.10
2017-10-28T12:24:53.150Z,11.20
2017-10-28T12:27:54.792Z,11.20
2017-10-28T12:30:56.347Z,11.20
2017-10-28T12:33:58.099Z,11.20
2017-10-28T12:36:59.616Z,11.10
2017-10-28T12:40:01.205Z,11.00
2017-10-28T12:43:02.695Z,11.10
2017-10-28T12:46:04.232Z,11.10
2017-10-28T12:49:05.843Z,11.20
2017-10-28T12:52:07.429Z,11.30
2017-10-28T12:55:08.957Z,11.20
2017-10-28T12:58:10.531Z,11.20
2017-10-28T13:01:12.141Z,11.30
2017-10-28T13:04:14.436Z,11.30
2017-10-28T13:07:16.009Z,11.30
2017-10-28T13:10:17.568Z,11.40
2017-10-28T13:13:19.143Z,11.20
2017-10-28T13:16:20.652Z,11.20
2017-10-28T13:19:22.964Z,11.20
2017-10-28T13:22:24.565Z,11.10
2017-10-28T13:25:26.154Z,11.30
2017-10-28T13:28:27.771Z,11.30
2017-10-28T13:31:29.363Z,11.40
2017-10-28T13:34:30.916Z,12.80
2017-10-28T13:37:32.493Z,12.30
2017-10-28T13:40:34.218Z,11.60
2017-10-28T13:43:37.041Z,11.40
2017-10-28T13:46:39.087Z,11.40
2017-10-28T13:49:41.380Z,11.40
2017-10-28T13:52:44.105Z,11.30
2017-10-28T13:55:47.119Z,11.30
2017-10-28T13:58:48.730Z,11.30
2017-10-28T14:01:50.433Z,11.20
2017-10-28T14:04:52.309Z,11.30
2017-10-28T14:07:54.136Z,11.30
2017-10-28T14:10:56.472Z,11.50
2017-10-28T14:13:58.050Z,11.40
2017-10-28T14:17:00.093Z,11.40
2017-10-28T14:20:01.879Z,11.30
2017-10-28T14:23:03.495Z,11.30
2017-10-28T14:26:05.362Z,11.40
2017-10-28T14:29:08.695Z,11.30
2017-10-28T14:32:11.490Z,11.30
2017-10-28T14:35:18.058Z,11.70
2017-10-28T14:38:20.550Z,11.40
2017-10-28T14:41:22.162Z,11.40
2017-10-28T14:44:24.314Z,11.40
2017-10-28T14:47:26.738Z,11.40
2017-10-28T14:50:32.390Z,11.40
2017-10-28T14:53:34.478Z,11.40
2017-10-28T14:56:37.238Z,11.40
2017-10-28T14:59:41.375Z,11.30
2017-10-28T15:02:42.940Z,11.30
2017-10-28T15:05:44.739Z,11.20
2017-10-28T15:08:59.812Z,11.20
2017-10-28T15:16:05.017Z,11.10
2017-10-28T15:19:07.239Z,11.30
2017-10-28T15:22:10.084Z,11.20
2017-10-28T15:25:14.083Z,11.10
2017-10-28T15:28:16.473Z,11.00
2017-10-28T15:31:18.110Z,10.80
2017-10-28T15:34:19.864Z,11.00
2017-10-28T15:37:21.591Z,11.00
2017-10-28T15:40:23.337Z,10.90
2017-10-28T15:43:24.886Z,10.90
2017-10-28T15:46:26.440Z,10.90
2017-10-28T15:58:04.069Z,10.80
2017-10-28T16:01:05.991Z,10.60
2017-10-28T16:04:08.997Z,10.70
2017-10-28T16:10:19.553Z,10.70
2017-10-28T16:13:21.147Z,10.60
2017-10-28T16:16:22.653Z,10.70
2017-10-28T16:19:24.328Z,10.60
2017-10-28T16:22:25.905Z,10.60
2017-10-28T16:25:28.142Z,10.80
2017-10-28T16:28:29.690Z,10.80
2017-10-28T16:31:31.299Z,10.60
2017-10-28T16:34:32.837Z,10.50
2017-10-28T16:37:34.313Z,10.70
2017-10-28T16:40:35.908Z,10.50
2017-10-28T16:43:38.160Z,10.50
2017-10-28T16:46:39.711Z,10.50
2017-10-28T16:49:41.268Z,10.50
2017-10-28T16:52:42.846Z,10.50
2017-10-28T16:55:44.360Z,10.50
2017-10-28T16:58:45.903Z,10.20
2017-10-28T17:01:47.553Z,10.40
2017-10-28T17:04:49.119Z,10.30
2017-10-28T17:07:50.694Z,10.30
2017-10-28T17:10:52.638Z,10.40
2017-10-28T17:13:54.272Z,10.50
2017-10-28T17:16:55.941Z,10.50
2017-10-28T17:19:57.594Z,10.50
2017-10-28T17:22:59.208Z,10.50
2017-10-28T17:26:01.602Z,10.50
2017-10-28T17:29:03.271Z,10.50
2017-10-28T17:32:04.877Z,10.60
2017-10-28T17:35:06.466Z,10.50
2017-10-28T17:38:08.823Z,10.50
2017-10-28T17:41:11.143Z,10.60
2017-10-28T17:44:12.744Z,10.50
2017-10-28T17:47:14.324Z,10.50
2017-10-28T17:50:17.129Z,10.60
2017-10-28T17:53:18.709Z,10.60
2017-10-28T17:56:20.298Z,10.60
2017-10-28T17:59:22.629Z,10.60
2017-10-28T18:02:24.264Z,10.60
2017-10-28T18:05:25.862Z,10.60
2017-10-28T18:08:27.457Z,10.40
2017-10-28T18:11:29.121Z,10.60
2017-10-28T18:14:30.754Z,10.40
2017-10-28T18:17:32.449Z,10.70
2017-10-28T18:20:34.025Z,10.70
2017-10-28T18:23:35.663Z,10.70
2017-10-28T18:26:37.235Z,10.70
2017-10-28T18:29:39.092Z,10.70
2017-10-28T18:32:40.669Z,10.70
2017-10-28T18:35:43.105Z,10.80
2017-10-28T18:38:44.630Z,10.70
2017-10-28T18:41:46.153Z,10.80
2017-10-28T18:44:47.710Z,10.80
2017-10-28T18:47:49.231Z,10.80
2017-10-28T18:50:50.848Z,10.80
2017-10-28T18:53:53.130Z,10.90
2017-10-28T18:56:54.680Z,11.00
2017-10-28T18:59:56.215Z,10.90
2017-10-28T19:02:57.760Z,10.90
2017-10-28T19:05:59.280Z,11.00
2017-10-28T19:09:00.917Z,11.00
2017-10-28T19:12:03.257Z,11.00
2017-10-28T19:15:04.840Z,11.00
2017-10-28T19:18:06.347Z,10.80
2017-10-28T19:21:07.877Z,11.10
2017-10-28T19:24:09.400Z,11.10
2017-10-28T19:27:11.703Z,11.10
2017-10-28T19:30:13.265Z,11.10
2017-10-28T19:33:14.823Z,11.10
2017-10-28T19:36:16.419Z,11.10
2017-10-28T19:39:18.122Z,11.20
2017-10-28T19:42:19.640Z,11.20
2017-10-28T19:45:21.973Z,11.30
2017-10-28T19:48:23.509Z,11.30
2017-10-28T19:51:25.086Z,11.40
2017-10-28T19:54:26.618Z,11.30
2017-10-28T19:57:28.241Z,11.30
2017-10-28T20:00:30.536Z,11.40
2017-10-28T20:03:32.776Z,11.40
2017-10-28T20:06:35.064Z,11.40
2017-10-28T20:09:36.668Z,11.40
2017-10-28T20:12:38.243Z,11.70
2017-10-28T20:15:40.526Z,11.50
2017-10-28T20:18:42.899Z,11.50
2017-10-28T20:21:44.476Z,11.50
2017-10-28T20:24:46.808Z,11.60
2017-10-28T20:27:48.431Z,11.50
2017-10-28T20:30:50.056Z,11.40
2017-10-28T20:33:52.328Z,11.60
2017-10-28T20:36:54.767Z,11.60
2017-10-28T20:39:56.464Z,11.60
2017-10-28T20:42:58.775Z,11.60
2017-10-28T20:46:00.296Z,11.60
2017-10-28T20:49:02.744Z,11.60
2017-10-28T20:52:04.273Z,11.70
2017-10-28T20:55:05.933Z,11.60
2017-10-28T20:58:07.463Z,11.70
2017-10-28T21:01:09.051Z,11.60
2017-10-28T21:04:10.594Z,11.70
2017-10-28T21:07:12.149Z,11.70
2017-10-28T21:10:13.697Z,11.80
2017-10-28T21:13:15.360Z,11.70
2017-10-28T21:16:16.881Z,11.70
2017-10-28T21:19:19.193Z,11.80
2017-10-28T21:22:20.787Z,11.80
2017-10-28T21:25:22.385Z,11.80
2017-10-28T21:28:23.980Z,11.80
2017-10-28T21:31:25.561Z,11.80
2017-10-28T21:34:27.971Z,11.80
2017-10-28T21:37:29.509Z,11.80
2017-10-28T21:40:31.142Z,11.90
2017-10-28T21:43:33.440Z,11.90
2017-10-28T21:46:34.981Z,11.90
2017-10-28T21:49:37.348Z,11.90
2017-10-28T21:52:39.673Z,12.00
2017-10-28T21:55:41.291Z,11.90
2017-10-28T21:58:42.930Z,12.00
2017-10-28T22:01:44.529Z,12.00
2017-10-28T22:04:46.186Z,12.00
2017-10-28T22:07:47.783Z,12.10
2017-10-28T22:10:49.448Z,12.20
2017-10-28T22:13:51.035Z,12.00
2017-10-28T22:16:52.658Z,12.10
2017-10-28T22:19:54.294Z,12.10
2017-10-28T22:22:55.885Z,12.10
2017-10-28T22:25:58.196Z,12.10
2017-10-28T22:28:59.818Z,12.10
2017-10-28T22:32:02.188Z,12.10
2017-10-28T22:35:04.526Z,12.10
2017-10-28T22:38:06.200Z,12.10
2017-10-28T22:41:07.903Z,12.20
2017-10-28T22:44:09.489Z,12.20
2017-10-28T22:47:11.146Z,12.20
2017-10-28T22:50:12.909Z,12.10
2017-10-28T22:53:14.434Z,12.20
2017-10-28T22:56:16.022Z,12.30
2017-10-28T22:59:17.609Z,12.20
2017-10-28T23:02:19.950Z,12.30
2017-10-28T23:05:21.499Z,12.30
2017-10-28T23:08:23.024Z,12.30
2017-10-28T23:11:24.634Z,12.30
2017-10-28T23:14:26.137Z,12.40
2017-10-28T23:17:27.693Z,12.40
2017-10-28T23:20:29.268Z,12.40
2017-10-28T23:23:30.849Z,12.40
2017-10-28T23:26:32.378Z,12.40
2017-10-28T23:29:33.921Z,12.50
2017-10-28T23:32:35.427Z,12.50
2017-10-28T23:35:37.730Z,12.50
2017-10-28T23:38:39.313Z,12.50
2017-10-28T23:41:41.086Z,12.50
2017-10-28T23:44:42.580Z,12.50
2017-10-28T23:47:44.856Z,12.50
2017-10-28T23:50:47.107Z,12.60
2017-10-28T23:53:48.642Z,12.50
2017-10-28T23:56:50.152Z,12.50
2017-10-28T23:59:51.657Z,12.60
